Time;durP1;ratioP1;P1;durP2;ratioP2;P2;SDS_P1;SDS_P2;PMS_P1;PMS_P2;Temp;Humidity;BMP_temperature;BMP_pressure;BME280_temperature;BME280_humidity;BME280_pressure;Samples;Min_cycle;Max_cycle;Signal;HPM_P1;HPM_P2
2021/08/28 00:01:27;;;;;;;5.18;1.10;;;15.30;91.80;;;;;;2609310;54;20879;-74
2021/08/28 00:03:53;;;;;;;2.35;2.15;;;15.30;91.80;;;;;;2609367;54;20094;-77
2021/08/28 00:06:19;;;;;;;7.75;1.33;;;15.20;91.80;;;;;;2609538;39;20790;-75
2021/08/28 00:08:44;;;;;;;1.20;1.10;;;15.20;91.90;;;;;;2608340;54;20031;-76
2021/08/28 00:11:10;;;;;;;1.38;1.10;;;15.20;91.90;;;;;;2609482;54;20159;-76
2021/08/28 00:13:35;;;;;;;3.03;1.20;;;15.20;92.00;;;;;;2609513;54;20038;-75
2021/08/28 00:16:02;;;;;;;2.05;1.20;;;15.20;92.00;;;;;;2609545;54;20038;-76
2021/08/28 00:18:27;;;;;;;1.33;1.10;;;15.10;92.10;;;;;;2608412;54;20038;-76
2021/08/28 00:20:53;;;;;;;1.27;1.20;;;15.10;92.00;;;;;;2607821;54;20034;-76
2021/08/28 00:23:18;;;;;;;1.33;1.20;;;15.20;92.10;;;;;;2608612;54;20035;-76
2021/08/28 00:25:44;;;;;;;1.05;1.00;;;15.10;92.10;;;;;;2608365;54;20031;-75
2021/08/28 00:28:10;;;;;;;1.40;1.13;;;15.10;92.10;;;;;;2607575;47;20062;-75
2021/08/28 00:30:36;;;;;;;1.33;1.23;;;15.10;92.10;;;;;;2608311;54;20034;-75
2021/08/28 00:33:13;;;;;;;3.42;1.10;;;15.10;92.20;;;;;;2609411;54;20038;-75
2021/08/28 00:35:39;;;;;;;1.08;1.02;;;15.10;92.20;;;;;;2608434;54;20030;-76
2021/08/28 00:38:05;;;;;;;1.45;1.33;;;15.10;92.20;;;;;;2608546;54;20344;-75
2021/08/28 00:40:33;;;;;;;1.48;1.20;;;15.10;92.30;;;;;;2609831;54;20038;-74
2021/08/28 00:43:00;;;;;;;1.70;1.20;;;15.10;92.20;;;;;;2609527;47;20577;-74
2021/08/28 00:45:30;;;;;;;1.95;1.20;;;15.10;92.30;;;;;;2608865;54;20057;-74
2021/08/28 00:47:58;;;;;;;1.30;1.20;;;15.10;92.30;;;;;;2608861;54;20034;-74
2021/08/28 00:50:25;;;;;;;2.17;1.40;;;15.10;92.30;;;;;;2609371;54;20034;-74
2021/08/28 00:52:55;;;;;;;1.58;1.15;;;15.10;92.30;;;;;;2609675;54;20034;-74
2021/08/28 00:55:24;;;;;;;2.65;1.30;;;15.10;92.30;;;;;;2609708;54;20037;-74
2021/08/28 00:57:51;;;;;;;2.38;1.35;;;15.10;92.30;;;;;;2609333;39;20554;-74
2021/08/28 01:00:17;;;;;;;2.17;1.45;;;15.20;92.30;;;;;;2608697;54;20034;-74
2021/08/28 01:02:48;;;;;;;3.33;1.20;;;15.10;92.30;;;;;;2608256;54;20038;-74
2021/08/28 01:05:21;;;;;;;1.50;1.10;;;15.10;92.30;;;;;;2608557;47;20034;-74
2021/08/28 01:08:04;;;;;;;1.20;1.20;;;15.10;92.30;;;;;;2607754;54;20038;-74
2021/08/28 01:11:21;;;;;;;1.50;1.30;;;15.10;92.30;;;;;;2608448;54;20041;-74
2021/08/28 01:14:00;;;;;;;3.00;1.65;;;15.10;92.30;;;;;;2608520;39;20310;-74
2021/08/28 01:16:27;;;;;;;1.60;1.50;;;15.10;92.30;;;;;;2608416;54;20070;-74
2021/08/28 01:18:57;;;;;;;4.25;1.38;;;15.00;92.30;;;;;;2608236;39;20469;-74
2021/08/28 01:21:34;;;;;;;1.40;1.27;;;15.00;92.30;;;;;;2608414;51;20121;-74
2021/08/28 01:24:08;;;;;;;2.20;1.35;;;15.00;92.30;;;;;;2608290;54;20045;-73
2021/08/28 01:27:00;;;;;;;2.08;1.58;;;15.00;92.30;;;;;;2608196;47;20057;-74
2021/08/28 01:29:30;;;;;;;2.08;1.75;;;15.00;92.40;;;;;;2608533;39;20644;-74
2021/08/28 01:31:57;;;;;;;2.45;1.27;;;15.00;92.40;;;;;;2608996;54;20077;-74
2021/08/28 01:34:24;;;;;;;1.52;1.42;;;15.00;92.40;;;;;;2609907;54;20084;-74
2021/08/28 01:36:51;;;;;;;1.90;1.48;;;15.00;92.40;;;;;;2608829;54;20034;-74
2021/08/28 01:39:36;;;;;;;1.60;1.50;;;15.00;92.40;;;;;;2609047;47;20031;-74
2021/08/28 01:42:04;;;;;;;1.70;1.60;;;15.10;92.30;;;;;;2609018;54;20034;-74
2021/08/28 01:44:33;;;;;;;3.00;1.58;;;15.10;92.40;;;;;;2609360;51;20030;-74
2021/08/28 01:46:59;;;;;;;4.47;1.60;;;15.10;92.40;;;;;;2608873;51;20897;-74
2021/08/28 01:49:26;;;;;;;2.78;1.45;;;15.10;92.30;;;;;;2609837;39;20470;-74
2021/08/28 01:51:52;;;;;;;2.55;1.60;;;15.00;92.40;;;;;;2609512;54;20035;-74
2021/08/28 01:54:24;;;;;;;1.80;1.70;;;15.00;92.40;;;;;;2609822;54;20030;-74
2021/08/28 01:56:49;;;;;;;1.88;1.73;;;15.00;92.50;;;;;;2608915;54;20082;-74
2021/08/28 01:59:16;;;;;;;1.70;1.60;;;15.10;92.60;;;;;;2609027;54;20022;-74
2021/08/28 02:02:00;;;;;;;1.55;1.40;;;15.10;92.60;;;;;;2609992;54;20042;-74
2021/08/28 02:04:34;;;;;;;2.17;1.38;;;15.10;92.60;;;;;;2608985;54;20039;-73
2021/08/28 02:07:21;;;;;;;4.88;2.03;;;15.10;92.50;;;;;;2608756;54;20037;-74
2021/08/28 02:10:10;;;;;;;1.60;1.50;;;15.10;92.60;;;;;;2608659;47;20061;-74
2021/08/28 02:12:47;;;;;;;1.88;1.67;;;15.10;92.60;;;;;;2609114;54;20030;-74
2021/08/28 02:15:45;;;;;;;5.40;1.73;;;15.10;92.50;;;;;;2608896;54;20035;-74
2021/08/28 02:18:29;;;;;;;1.70;1.60;;;15.10;92.50;;;;;;2608582;51;20039;-74
2021/08/28 02:21:10;;;;;;;2.85;1.80;;;15.20;92.60;;;;;;2608934;54;20031;-74
2021/08/28 02:24:02;;;;;;;3.30;2.10;;;15.10;92.50;;;;;;2609261;47;20668;-74
2021/08/28 02:26:41;;;;;;;2.30;2.10;;;15.10;92.60;;;;;;2608896;54;20031;-74
2021/08/28 02:29:17;;;;;;;1.70;1.60;;;15.10;92.60;;;;;;2608780;54;20034;-74
2021/08/28 02:31:46;;;;;;;1.60;1.48;;;15.20;92.60;;;;;;2607674;47;20034;-74
2021/08/28 02:34:17;;;;;;;6.18;2.20;;;15.10;92.50;;;;;;2607979;54;20030;-74
2021/08/28 02:36:45;;;;;;;2.50;1.80;;;15.10;92.50;;;;;;2607496;54;20038;-73
2021/08/28 02:39:15;;;;;;;1.85;1.60;;;15.10;92.50;;;;;;2607578;54;20065;-74
2021/08/28 02:41:43;;;;;;;2.45;2.05;;;15.20;92.50;;;;;;2607511;54;20066;-74
2021/08/28 02:44:11;;;;;;;2.22;2.03;;;15.10;92.50;;;;;;2607784;54;20049;-73
2021/08/28 02:46:37;;;;;;;3.08;1.80;;;15.10;92.50;;;;;;2607348;54;20035;-74
2021/08/28 02:49:10;;;;;;;3.63;1.90;;;15.10;92.40;;;;;;2607750;39;20509;-74
2021/08/28 02:51:39;;;;;;;4.68;2.00;;;15.10;92.50;;;;;;2607458;54;20110;-74
2021/08/28 02:54:07;;;;;;;2.13;1.92;;;15.10;92.50;;;;;;2607874;39;20819;-74
2021/08/28 02:56:34;;;;;;;1.80;1.60;;;15.20;92.60;;;;;;2607723;54;20032;-74
2021/08/28 02:59:00;;;;;;;2.83;2.00;;;15.20;92.40;;;;;;2607024;54;20132;-73
2021/08/28 03:01:28;;;;;;;2.20;2.00;;;15.20;92.40;;;;;;2607744;47;20027;-74
2021/08/28 03:03:56;;;;;;;2.58;2.38;;;15.10;92.40;;;;;;2607351;54;20050;-74
2021/08/28 03:06:29;;;;;;;2.50;1.90;;;15.20;92.40;;;;;;2607872;54;20027;-74
2021/08/28 03:08:56;;;;;;;4.25;2.28;;;15.20;92.50;;;;;;2607689;47;20903;-73
2021/08/28 03:11:23;;;;;;;2.25;2.05;;;15.10;92.30;;;;;;2608493;39;20621;-74
2021/08/28 03:13:49;;;;;;;2.03;1.88;;;15.10;92.50;;;;;;2607578;54;20034;-74
2021/08/28 03:16:20;;;;;;;2.28;2.05;;;15.20;92.50;;;;;;2606966;47;20034;-74
2021/08/28 03:18:48;;;;;;;1.85;1.70;;;15.10;92.50;;;;;;2607405;54;20072;-74
2021/08/28 03:21:17;;;;;;;2.03;1.90;;;15.10;92.40;;;;;;2607422;54;20026;-74
2021/08/28 03:23:44;;;;;;;2.97;2.15;;;15.10;92.50;;;;;;2608101;54;20027;-74
2021/08/28 03:26:13;;;;;;;2.85;2.05;;;15.10;92.40;;;;;;2607887;39;20403;-74
2021/08/28 03:28:40;;;;;;;3.47;2.22;;;15.10;92.70;;;;;;2606559;47;20050;-74
2021/08/28 03:31:07;;;;;;;2.80;2.17;;;15.10;92.40;;;;;;2607051;54;20036;-74
2021/08/28 03:33:34;;;;;;;2.42;2.22;;;15.10;92.30;;;;;;2607476;54;20029;-74
2021/08/28 03:36:03;;;;;;;3.08;2.28;;;15.10;92.40;;;;;;2607152;54;20035;-74
2021/08/28 03:38:29;;;;;;;3.50;2.30;;;15.10;92.40;;;;;;2607491;39;20892;-74
2021/08/28 03:41:01;;;;;;;2.45;2.20;;;15.10;92.40;;;;;;2607186;54;20034;-74
2021/08/28 03:43:27;;;;;;;3.67;2.35;;;15.10;92.40;;;;;;2607205;47;20057;-74
2021/08/28 03:45:55;;;;;;;6.18;2.55;;;15.10;92.40;;;;;;2608490;54;20034;-74
2021/08/28 03:48:22;;;;;;;2.60;2.40;;;15.10;92.40;;;;;;2607971;39;20773;-74
2021/08/28 03:50:49;;;;;;;3.65;2.45;;;15.20;92.50;;;;;;2608324;39;20452;-74
2021/08/28 03:53:14;;;;;;;2.42;2.22;;;15.20;92.40;;;;;;2608677;54;20030;-74
2021/08/28 03:55:40;;;;;;;2.72;2.45;;;15.20;92.40;;;;;;2608132;54;20074;-74
2021/08/28 03:58:06;;;;;;;4.43;2.85;;;15.10;92.40;;;;;;2607722;54;20041;-74
2021/08/28 04:00:32;;;;;;;2.30;2.10;;;15.10;92.40;;;;;;2608314;39;20423;-74
2021/08/28 04:02:59;;;;;;;2.53;2.33;;;15.10;92.40;;;;;;2607555;54;20030;-74
2021/08/28 04:05:27;;;;;;;4.03;3.33;;;15.10;92.50;;;;;;2607762;54;20090;-74
2021/08/28 04:07:53;;;;;;;3.78;2.63;;;15.10;92.50;;;;;;2607389;54;20826;-74
2021/08/28 04:10:19;;;;;;;3.30;2.95;;;15.20;92.60;;;;;;2607392;48;20034;-74
2021/08/28 04:12:47;;;;;;;2.90;2.45;;;15.20;92.60;;;;;;2607762;54;20038;-74
2021/08/28 04:15:13;;;;;;;2.80;2.60;;;15.20;92.50;;;;;;2607701;54;20080;-74
2021/08/28 04:17:57;;;;;;;5.10;2.65;;;15.20;92.40;;;;;;2607552;54;20180;-74
2021/08/28 04:20:24;;;;;;;3.33;3.03;;;15.20;92.30;;;;;;2607214;47;20034;-74
2021/08/28 04:22:51;;;;;;;3.30;3.00;;;15.20;92.30;;;;;;2608373;39;20543;-74
2021/08/28 04:25:37;;;;;;;3.53;2.90;;;15.20;92.40;;;;;;2607755;54;20090;-74
2021/08/28 04:28:08;;;;;;;4.10;3.28;;;15.30;92.40;;;;;;2607448;54;20069;-74
2021/08/28 04:30:34;;;;;;;2.65;2.45;;;15.30;92.40;;;;;;2607277;54;20034;-73
2021/08/28 04:33:01;;;;;;;4.60;3.53;;;15.40;92.30;;;;;;2608003;54;20159;-74
2021/08/28 04:35:27;;;;;;;5.30;4.38;;;15.40;92.40;;;;;;2608729;39;20569;-74
2021/08/28 04:37:53;;;;;;;4.63;3.90;;;15.40;92.40;;;;;;2607678;54;20022;-74
2021/08/28 04:40:19;;;;;;;6.63;4.30;;;15.40;92.50;;;;;;2607864;47;20033;-74
2021/08/28 04:42:45;;;;;;;5.38;4.82;;;15.50;92.50;;;;;;2607559;47;20034;-74
2021/08/28 04:45:15;;;;;;;6.63;5.07;;;15.50;92.40;;;;;;2607917;47;20031;-74
2021/08/28 04:48:10;;;;;;;6.55;5.65;;;15.50;92.30;;;;;;2606918;54;20146;-74
2021/08/28 04:50:39;;;;;;;8.05;5.70;;;15.50;92.30;;;;;;2607606;54;20035;-74
2021/08/28 04:53:04;;;;;;;8.98;6.03;;;15.50;92.20;;;;;;2607634;54;20872;-74
2021/08/28 04:55:31;;;;;;;6.22;5.45;;;15.50;92.10;;;;;;2607416;54;20034;-74
2021/08/28 04:57:56;;;;;;;5.95;5.35;;;15.50;92.00;;;;;;2607856;39;20719;-74
2021/08/28 05:00:22;;;;;;;8.65;5.65;;;15.50;92.00;;;;;;2607456;54;20026;-74
2021/08/28 05:03:25;;;;;;;6.70;5.50;;;15.40;92.00;;;;;;2608492;54;20045;-74
2021/08/28 05:05:54;;;;;;;8.25;6.47;;;15.40;92.00;;;;;;2608284;54;20026;-74
2021/08/28 05:08:23;;;;;;;6.97;5.65;;;15.50;92.10;;;;;;2608423;39;20580;-74
2021/08/28 05:10:50;;;;;;;6.32;5.63;;;15.50;92.00;;;;;;2608104;54;20030;-74
2021/08/28 05:13:16;;;;;;;7.95;7.15;;;15.50;92.00;;;;;;2608517;54;20026;-74
2021/08/28 05:15:43;;;;;;;7.13;5.70;;;15.50;92.00;;;;;;2608340;47;21004;-74
2021/08/28 05:18:08;;;;;;;7.07;5.43;;;15.50;91.90;;;;;;2608636;47;20150;-74
2021/08/28 05:20:34;;;;;;;6.15;5.53;;;15.40;91.90;;;;;;2608391;54;20027;-74
2021/08/28 05:23:32;;;;;;;6.65;5.72;;;15.50;91.90;;;;;;2609352;54;20057;-74
2021/08/28 05:26:27;;;;;;;5.47;4.95;;;15.50;91.80;;;;;;2610014;54;20038;-74
2021/08/28 05:28:52;;;;;;;7.03;5.68;;;15.50;91.80;;;;;;2609277;54;20841;-75
2021/08/28 05:31:19;;;;;;;5.78;5.10;;;15.50;91.70;;;;;;2608642;39;20856;-74
2021/08/28 05:33:45;;;;;;;7.93;4.72;;;15.50;91.80;;;;;;2609217;47;20153;-75
2021/08/28 05:36:15;;;;;;;5.78;5.18;;;15.50;91.70;;;;;;2609604;54;20030;-74
2021/08/28 05:39:12;;;;;;;5.70;5.10;;;15.50;91.80;;;;;;2609011;46;20033;-75
2021/08/28 05:41:38;;;;;;;5.28;4.70;;;15.60;91.60;;;;;;2609432;54;20122;-75
2021/08/28 05:44:05;;;;;;;5.85;4.80;;;15.60;91.60;;;;;;2609380;49;20054;-74
2021/08/28 05:46:35;;;;;;;5.95;4.68;;;15.60;91.50;;;;;;2609459;47;20038;-75
2021/08/28 05:49:07;;;;;;;5.72;4.57;;;15.70;91.50;;;;;;2608685;54;20049;-74
2021/08/28 05:51:49;;;;;;;5.43;4.50;;;15.60;91.50;;;;;;2609083;54;20038;-76
2021/08/28 05:54:15;;;;;;;5.13;4.25;;;15.70;91.50;;;;;;2608879;54;20066;-76
2021/08/28 05:56:40;;;;;;;6.13;4.70;;;15.70;91.60;;;;;;2609253;54;20030;-76
2021/08/28 05:59:06;;;;;;;8.20;4.53;;;15.80;91.60;;;;;;2608821;54;20026;-76
2021/08/28 06:01:32;;;;;;;5.65;4.68;;;15.70;91.60;;;;;;2609361;54;20068;-76
2021/08/28 06:03:58;;;;;;;5.05;4.32;;;15.80;91.50;;;;;;2609233;54;20030;-76
2021/08/28 06:06:44;;;;;;;4.80;4.30;;;15.80;91.30;;;;;;2608637;54;20034;-76
2021/08/28 06:09:45;;;;;;;6.15;4.93;;;15.80;91.40;;;;;;2608082;54;20046;-75
2021/08/28 06:12:29;;;;;;;6.72;4.63;;;15.90;91.40;;;;;;2609132;54;20059;-75
2021/08/28 06:15:27;;;;;;;4.95;4.13;;;15.90;91.40;;;;;;2609582;54;20046;-74
2021/08/28 06:18:00;;;;;;;5.68;4.50;;;15.90;91.40;;;;;;2608420;54;20042;-74
2021/08/28 06:20:26;;;;;;;5.28;4.45;;;15.80;91.40;;;;;;2608760;54;20053;-75
2021/08/28 06:22:52;;;;;;;5.55;4.95;;;15.90;91.50;;;;;;2608405;47;20031;-77
2021/08/28 06:25:22;;;;;;;7.90;4.60;;;15.80;91.50;;;;;;2609259;39;20441;-76
2021/08/28 06:27:50;;;;;;;6.45;5.38;;;15.90;91.40;;;;;;2608529;47;20030;-76
2021/08/28 06:30:18;;;;;;;8.48;4.60;;;15.90;91.30;;;;;;2608862;54;20038;-77
2021/08/28 06:32:44;;;;;;;6.35;5.63;;;15.80;91.20;;;;;;2608789;54;20033;-76
2021/08/28 06:35:12;;;;;;;5.05;4.55;;;15.80;91.40;;;;;;2609150;54;20034;-76
2021/08/28 06:37:42;;;;;;;5.35;4.55;;;15.80;91.40;;;;;;2608928;54;20042;-76
2021/08/28 06:40:26;;;;;;;6.03;4.88;;;15.80;91.40;;;;;;2609369;54;20049;-74
2021/08/28 06:43:14;;;;;;;5.55;4.57;;;15.90;91.50;;;;;;2609329;54;20076;-76
2021/08/28 06:45:59;;;;;;;5.45;4.60;;;15.90;91.50;;;;;;2609864;54;20127;-76
2021/08/28 06:48:44;;;;;;;7.22;5.07;;;15.90;91.50;;;;;;2610502;39;20448;-74
2021/08/28 06:51:29;;;;;;;5.97;4.70;;;15.90;91.60;;;;;;2609157;54;20046;-74
2021/08/28 06:54:13;;;;;;;5.80;4.70;;;15.90;91.60;;;;;;2609704;54;20070;-76
2021/08/28 06:56:57;;;;;;;6.10;4.43;;;15.90;91.50;;;;;;2608876;54;20045;-76
2021/08/28 06:59:52;;;;;;;5.78;4.63;;;15.90;91.50;;;;;;2608892;54;20034;-76
2021/08/28 07:02:44;;;;;;;5.72;4.45;;;15.90;91.60;;;;;;2609597;39;20510;-76
2021/08/28 07:05:11;;;;;;;4.93;4.28;;;15.90;91.60;;;;;;2609059;54;20546;-76
2021/08/28 07:07:48;;;;;;;6.20;5.00;;;15.90;91.60;;;;;;2608291;54;20090;-76
2021/08/28 07:10:14;;;;;;;6.53;4.70;;;16.00;91.60;;;;;;2608892;54;20034;-74
2021/08/28 07:12:41;;;;;;;6.38;4.75;;;16.00;91.50;;;;;;2608502;54;20026;-75
2021/08/28 07:15:08;;;;;;;5.90;4.60;;;16.00;91.50;;;;;;2608875;47;20061;-74
2021/08/28 07:17:53;;;;;;;7.47;4.95;;;16.00;91.60;;;;;;2608046;47;20213;-74
2021/08/28 07:20:18;;;;;;;5.75;4.38;;;16.10;91.60;;;;;;2609651;39;20418;-74
2021/08/28 07:22:46;;;;;;;6.40;4.30;;;16.10;91.80;;;;;;2608291;54;20922;-76
2021/08/28 07:25:30;;;;;;;5.82;4.30;;;16.20;91.40;;;;;;2609734;54;20976;-76
2021/08/28 07:27:56;;;;;;;6.50;4.85;;;16.10;91.30;;;;;;2608042;54;20931;-76
2021/08/28 07:30:40;;;;;;;6.30;4.88;;;16.20;91.40;;;;;;2609109;54;20038;-77
2021/08/28 07:33:06;;;;;;;7.22;4.93;;;16.20;91.40;;;;;;2608607;47;20030;-76
2021/08/28 07:35:32;;;;;;;5.53;4.28;;;16.20;91.40;;;;;;2609013;54;20038;-76
2021/08/28 07:37:58;;;;;;;6.68;4.50;;;16.20;91.40;;;;;;2609014;47;20030;-77
2021/08/28 07:40:25;;;;;;;6.38;4.88;;;16.30;91.30;;;;;;2609016;54;20035;-77
2021/08/28 07:42:53;;;;;;;8.05;5.13;;;16.30;91.00;;;;;;2609958;54;20065;-76
2021/08/28 07:45:20;;;;;;;9.02;5.05;;;16.30;91.00;;;;;;2608960;54;20027;-75
2021/08/28 07:48:02;;;;;;;8.35;4.90;;;16.30;91.20;;;;;;2609308;47;20037;-77
2021/08/28 07:50:29;;;;;;;9.23;4.80;;;16.30;91.10;;;;;;2608604;54;20091;-74
2021/08/28 07:52:55;;;;;;;5.60;4.45;;;16.30;91.20;;;;;;2609808;39;20376;-75
2021/08/28 07:55:21;;;;;;;8.15;4.75;;;16.40;91.10;;;;;;2608804;47;20034;-74
2021/08/28 07:57:47;;;;;;;6.70;5.32;;;16.40;91.10;;;;;;2608519;54;20057;-74
2021/08/28 08:00:13;;;;;;;7.05;5.20;;;16.50;91.10;;;;;;2608834;54;20038;-74
2021/08/28 08:02:39;;;;;;;6.55;4.70;;;16.50;91.10;;;;;;2609394;39;20391;-75
2021/08/28 08:05:12;;;;;;;8.13;5.65;;;16.50;91.00;;;;;;2609285;54;20030;-74
2021/08/28 08:08:01;;;;;;;8.13;5.60;;;16.60;91.30;;;;;;2608563;54;20085;-75
2021/08/28 08:10:47;;;;;;;7.67;5.53;;;16.60;90.80;;;;;;2609289;54;20069;-75
2021/08/28 08:13:35;;;;;;;6.82;4.93;;;16.70;90.70;;;;;;2608769;54;20041;-76
2021/08/28 08:16:19;;;;;;;6.55;4.05;;;16.70;90.80;;;;;;2607512;54;20062;-76
2021/08/28 08:19:07;;;;;;;6.57;4.32;;;16.70;90.80;;;;;;2602573;54;20066;-73
2021/08/28 08:22:02;;;;;;;6.70;5.03;;;16.80;90.70;;;;;;2607608;54;20027;-72
2021/08/28 08:24:47;;;;;;;6.35;4.25;;;16.90;90.70;;;;;;2608041;54;20637;-72
2021/08/28 08:27:31;;;;;;;4.88;3.85;;;17.00;90.80;;;;;;2609445;54;20170;-70
2021/08/28 08:30:16;;;;;;;4.53;3.72;;;17.00;90.60;;;;;;2609048;54;20045;-70
2021/08/28 08:32:47;;;;;;;5.93;4.32;;;17.10;90.50;;;;;;2609578;39;20210;-72
2021/08/28 08:35:13;;;;;;;5.10;3.45;;;17.10;90.50;;;;;;2608388;54;20897;-72
2021/08/28 08:37:41;;;;;;;4.68;3.22;;;17.20;90.30;;;;;;2608694;54;20019;-75
2021/08/28 08:40:07;;;;;;;4.95;3.00;;;17.20;90.20;;;;;;2608734;39;20419;-73
2021/08/28 08:42:40;;;;;;;4.85;3.60;;;17.20;90.20;;;;;;2607399;54;20196;-72
2021/08/28 08:45:07;;;;;;;4.18;3.40;;;17.30;90.20;;;;;;2608468;47;20068;-72
2021/08/28 08:47:35;;;;;;;4.88;3.08;;;17.30;90.10;;;;;;2607441;47;20062;-73
2021/08/28 08:50:02;;;;;;;3.75;3.08;;;17.40;90.10;;;;;;2608028;47;20026;-74
2021/08/28 08:52:42;;;;;;;5.63;3.22;;;17.50;90.10;;;;;;2609103;39;20254;-71
2021/08/28 08:55:32;;;;;;;3.58;2.65;;;17.50;90.10;;;;;;2609268;47;20034;-71
2021/08/28 08:57:59;;;;;;;4.00;2.92;;;17.50;89.70;;;;;;2608711;54;20030;-71
2021/08/28 09:00:27;;;;;;;5.13;2.60;;;17.60;89.60;;;;;;2609474;54;20099;-72
2021/08/28 09:03:11;;;;;;;3.90;2.80;;;17.60;89.90;;;;;;2609675;39;20576;-74
2021/08/28 09:05:38;;;;;;;3.45;2.70;;;17.70;89.40;;;;;;2608882;47;20053;-71
2021/08/28 09:08:04;;;;;;;2.55;2.35;;;17.70;88.40;;;;;;2608178;47;20164;-72
2021/08/28 09:10:30;;;;;;;4.13;1.98;;;17.70;88.20;;;;;;2608624;54;20070;-75
2021/08/28 09:13:11;;;;;;;2.50;2.30;;;17.70;88.60;;;;;;2607755;51;20041;-73
2021/08/28 09:15:58;;;;;;;2.22;1.75;;;17.70;88.40;;;;;;2609430;54;20050;-73
2021/08/28 09:18:24;;;;;;;3.17;2.20;;;17.70;88.40;;;;;;2608492;54;20061;-73
2021/08/28 09:20:50;;;;;;;2.33;1.95;;;17.80;88.60;;;;;;2609286;54;20049;-73
2021/08/28 09:23:18;;;;;;;2.47;2.00;;;17.90;88.40;;;;;;2609552;54;20050;-73
2021/08/28 09:25:48;;;;;;;3.38;2.17;;;18.00;87.10;;;;;;2609353;54;20039;-75
2021/08/28 09:28:15;;;;;;;4.78;3.17;;;18.10;86.80;;;;;;2609750;54;20053;-75
2021/08/28 09:30:49;;;;;;;3.88;2.30;;;18.30;85.00;;;;;;2609390;54;20070;-75
2021/08/28 09:33:23;;;;;;;2.70;1.98;;;18.40;83.90;;;;;;2609299;54;20030;-75
2021/08/28 09:35:51;;;;;;;1.70;1.60;;;18.50;84.90;;;;;;2609680;54;20022;-75
2021/08/28 09:38:19;;;;;;;2.60;1.60;;;18.50;83.80;;;;;;2609998;54;20894;-78
2021/08/28 09:40:57;;;;;;;2.42;1.90;;;18.50;83.60;;;;;;2609616;54;20077;-73
2021/08/28 09:43:23;;;;;;;2.58;1.70;;;18.50;84.70;;;;;;2609803;54;20957;-78
2021/08/28 09:45:53;;;;;;;1.67;1.58;;;18.50;85.80;;;;;;2609941;54;20034;-71
2021/08/28 09:48:24;;;;;;;2.10;1.77;;;18.60;86.00;;;;;;2609424;54;20041;-72
2021/08/28 09:50:50;;;;;;;1.73;1.48;;;18.70;84.70;;;;;;2609894;54;20031;-72
2021/08/28 09:53:22;;;;;;;2.03;1.60;;;18.80;84.00;;;;;;2609264;39;20445;-71
2021/08/28 09:55:56;;;;;;;2.28;1.50;;;18.80;83.40;;;;;;2609371;54;20035;-72
2021/08/28 09:58:27;;;;;;;2.10;1.50;;;18.90;83.00;;;;;;2609476;54;20030;-71
2021/08/28 10:00:52;;;;;;;1.63;1.40;;;18.90;82.50;;;;;;2609970;54;20053;-72
2021/08/28 10:03:25;;;;;;;1.42;1.33;;;18.90;82.10;;;;;;2609553;54;20035;-71
2021/08/28 10:05:52;;;;;;;1.90;1.70;;;18.90;81.80;;;;;;2610152;54;20059;-70
2021/08/28 10:08:20;;;;;;;1.60;1.48;;;19.00;81.80;;;;;;2609315;39;20404;-70
2021/08/28 10:10:46;;;;;;;1.45;1.33;;;19.10;80.60;;;;;;2609847;54;20095;-71
2021/08/28 10:13:11;;;;;;;2.00;1.55;;;19.10;81.10;;;;;;2609582;47;20035;-71
2021/08/28 10:15:37;;;;;;;2.22;2.03;;;19.10;81.00;;;;;;2609615;54;20023;-71
2021/08/28 10:18:05;;;;;;;2.38;2.17;;;19.00;81.50;;;;;;2609185;54;20070;-71
2021/08/28 10:20:31;;;;;;;2.33;1.90;;;19.00;81.70;;;;;;2609684;54;20029;-71
2021/08/28 10:23:01;;;;;;;2.65;1.60;;;19.10;82.70;;;;;;2609407;54;20030;-71
2021/08/28 10:25:31;;;;;;;2.58;1.75;;;19.10;82.70;;;;;;2609843;39;21079;-70
2021/08/28 10:27:57;;;;;;;2.10;1.63;;;19.20;83.00;;;;;;2608701;54;20053;-71
2021/08/28 10:30:24;;;;;;;1.85;1.50;;;19.20;82.50;;;;;;2609331;54;20914;-70
2021/08/28 10:32:51;;;;;;;1.67;1.55;;;19.20;80.80;;;;;;2609185;54;20129;-71
2021/08/28 10:35:19;;;;;;;2.75;1.70;;;19.10;78.80;;;;;;2609475;54;20022;-71
2021/08/28 10:37:46;;;;;;;1.30;1.20;;;19.30;80.10;;;;;;2608734;54;20034;-71
2021/08/28 10:40:14;;;;;;;1.83;1.25;;;19.50;77.50;;;;;;2609728;54;20023;-71
2021/08/28 10:42:42;;;;;;;1.67;1.50;;;19.60;77.60;;;;;;2609276;54;20037;-71
2021/08/28 10:45:10;;;;;;;1.67;1.55;;;19.60;78.00;;;;;;2609378;54;20034;-70
2021/08/28 10:47:45;;;;;;;2.20;1.40;;;19.50;76.80;;;;;;2608217;54;20039;-71
2021/08/28 10:50:13;;;;;;;1.65;1.50;;;19.60;78.70;;;;;;2608455;47;20046;-71
2021/08/28 10:52:41;;;;;;;2.40;1.52;;;19.60;78.10;;;;;;2608638;39;20734;-72
2021/08/28 10:55:11;;;;;;;2.03;1.33;;;19.60;76.20;;;;;;2608026;54;20573;-73
2021/08/28 10:57:37;;;;;;;4.88;1.80;;;19.70;76.30;;;;;;2608765;54;20038;-72
2021/08/28 11:00:09;;;;;;;3.05;1.60;;;19.90;76.80;;;;;;2608832;54;20030;-71
2021/08/28 11:02:59;;;;;;;1.92;1.70;;;20.00;74.90;;;;;;2609125;54;20038;-68
2021/08/28 11:05:27;;;;;;;3.47;1.63;;;20.10;77.80;;;;;;2608822;54;20037;-68
2021/08/28 11:08:12;;;;;;;1.58;1.48;;;20.20;77.70;;;;;;2608458;47;20035;-68
2021/08/28 11:10:37;;;;;;;2.40;1.70;;;20.30;76.40;;;;;;2608994;54;20052;-68
2021/08/28 11:13:04;;;;;;;1.50;1.40;;;20.30;76.60;;;;;;2609676;54;20026;-69
2021/08/28 11:15:33;;;;;;;2.10;1.67;;;20.30;78.50;;;;;;2609187;54;20141;-70
2021/08/28 11:18:05;;;;;;;1.80;1.20;;;20.30;79.90;;;;;;2609522;54;20030;-69
2021/08/28 11:20:35;;;;;;;4.00;1.20;;;20.30;76.30;;;;;;2609205;54;20149;-69
2021/08/28 11:23:08;;;;;;;1.83;1.20;;;20.30;76.20;;;;;;2609983;39;20152;-70
2021/08/28 11:25:35;;;;;;;2.20;1.17;;;20.30;75.80;;;;;;2610019;54;20037;-69
2021/08/28 11:28:05;;;;;;;1.70;1.50;;;20.20;76.60;;;;;;2608874;54;20038;-69
2021/08/28 11:30:44;;;;;;;1.50;1.40;;;20.30;78.40;;;;;;2609653;54;20037;-69
2021/08/28 11:33:20;;;;;;;1.50;1.15;;;20.30;76.10;;;;;;2609148;54;20042;-69
2021/08/28 11:35:54;;;;;;;1.38;1.08;;;20.30;74.50;;;;;;2609861;54;20277;-69
2021/08/28 11:38:23;;;;;;;1.27;1.13;;;20.40;72.60;;;;;;2608951;54;20046;-69
2021/08/28 11:41:07;;;;;;;4.78;1.25;;;20.40;75.80;;;;;;2609125;54;20077;-69
2021/08/28 11:43:35;;;;;;;1.83;1.10;;;20.20;77.00;;;;;;2608665;54;20069;-69
2021/08/28 11:46:15;;;;;;;1.58;1.30;;;20.10;77.90;;;;;;2609778;54;20030;-69
2021/08/28 11:48:44;;;;;;;1.67;1.10;;;19.90;76.80;;;;;;2609134;31;20556;-69
2021/08/28 11:51:22;;;;;;;1.13;1.02;;;19.80;78.50;;;;;;2610140;54;20031;-69
2021/08/28 11:53:53;;;;;;;2.13;1.23;;;19.60;77.30;;;;;;2609930;54;20050;-69
2021/08/28 11:56:21;;;;;;;1.42;1.10;;;19.50;77.40;;;;;;2609272;54;20043;-69
2021/08/28 11:59:00;;;;;;;1.17;1.00;;;19.40;78.20;;;;;;2609637;54;20038;-69
2021/08/28 12:01:44;;;;;;;5.47;1.30;;;19.30;78.80;;;;;;2609547;39;20920;-69
2021/08/28 12:04:16;;;;;;;1.40;1.20;;;19.40;73.10;;;;;;2609694;54;20030;-69
2021/08/28 12:06:43;;;;;;;6.15;1.60;;;19.40;75.70;;;;;;2609110;54;20074;-69
2021/08/28 12:09:11;;;;;;;2.92;1.13;;;19.50;76.80;;;;;;2608820;47;20042;-69
2021/08/28 12:11:43;;;;;;;1.58;1.20;;;19.70;77.00;;;;;;2609193;54;20584;-69
2021/08/28 12:14:10;;;;;;;2.28;1.05;;;19.90;74.30;;;;;;2609140;54;20040;-69
2021/08/28 12:16:37;;;;;;;2.63;1.30;;;20.00;74.50;;;;;;2609188;54;20034;-69
2021/08/28 12:19:18;;;;;;;1.63;1.23;;;20.10;72.10;;;;;;2609092;54;20039;-69
2021/08/28 12:21:52;;;;;;;1.52;1.40;;;20.10;73.20;;;;;;2610111;31;20547;-68
2021/08/28 12:24:31;;;;;;;3.35;1.38;;;20.10;75.80;;;;;;2609642;39;20886;-69
2021/08/28 12:27:04;;;;;;;2.47;1.48;;;20.00;76.30;;;;;;2608943;39;20204;-69
2021/08/28 12:29:32;;;;;;;1.48;1.25;;;20.00;74.10;;;;;;2608707;54;20114;-69
2021/08/28 12:32:00;;;;;;;1.60;1.50;;;20.00;76.50;;;;;;2609711;54;20578;-69
2021/08/28 12:34:31;;;;;;;2.65;1.60;;;20.00;78.30;;;;;;2608842;54;20034;-69
2021/08/28 12:36:59;;;;;;;1.77;1.40;;;19.90;76.70;;;;;;2608983;54;20061;-69
2021/08/28 12:39:25;;;;;;;2.95;1.30;;;20.00;78.00;;;;;;2608794;54;20043;-69
2021/08/28 12:41:51;;;;;;;1.60;1.33;;;20.10;80.80;;;;;;2609266;54;20041;-69
2021/08/28 12:44:17;;;;;;;1.55;1.45;;;20.20;81.70;;;;;;2608388;54;20042;-69
2021/08/28 12:46:47;;;;;;;2.42;1.40;;;20.20;82.30;;;;;;2609708;39;20795;-69
2021/08/28 12:49:19;;;;;;;1.55;1.45;;;20.30;81.80;;;;;;2609004;54;20038;-69
2021/08/28 12:51:58;;;;;;;1.60;1.50;;;20.20;81.60;;;;;;2609088;54;20034;-68
2021/08/28 12:54:45;;;;;;;2.40;1.40;;;20.20;82.00;;;;;;2609400;54;20121;-69
2021/08/28 12:57:18;;;;;;;1.95;1.35;;;20.20;82.80;;;;;;2608120;47;20031;-70
2021/08/28 12:59:52;;;;;;;1.40;1.30;;;20.20;82.40;;;;;;2609179;54;20035;-69
2021/08/28 13:02:30;;;;;;;1.42;1.33;;;20.20;82.70;;;;;;2608843;54;20037;-69
2021/08/28 13:04:57;;;;;;;3.72;1.50;;;20.20;82.70;;;;;;2609013;54;20037;-69
2021/08/28 13:07:29;;;;;;;1.42;1.33;;;20.10;83.20;;;;;;2608655;54;20030;-69
2021/08/28 13:09:59;;;;;;;1.42;1.33;;;20.10;83.10;;;;;;2609764;54;20042;-69
2021/08/28 13:12:48;;;;;;;1.95;1.23;;;20.20;78.50;;;;;;2609544;39;20518;-69